Time;durP1;ratioP1;P1;durP2;ratioP2;P2;SDS_P1;SDS_P2;PMS_P1;PMS_P2;Temp;Humidity;BMP_temperature;BMP_pressure;BME280_temperature;BME280_humidity;BME280_pressure;Samples;Min_cycle;Max_cycle;Signal;HPM_P1;HPM_P2
2022/01/31 00:01:49;;;;;;;6.30;2.33;;;5.60;99.90;;;;;;5049552;28;20541;-78
2022/01/31 00:04:16;;;;;;;5.60;2.53;;;5.70;99.90;;;;;;5049296;28;20197;-77
2022/01/31 00:06:48;;;;;;;7.37;2.47;;;5.70;99.90;;;;;;5032373;28;20220;-77
2022/01/31 00:09:17;;;;;;;7.37;2.47;;;5.60;99.90;;;;;;5017194;28;20489;-78
2022/01/31 00:11:53;;;;;;;8.63;2.30;;;5.40;99.90;;;;;;5049266;28;20169;-76
2022/01/31 00:14:40;;;;;;;6.97;2.20;;;5.30;99.90;;;;;;5040759;28;20173;-78
2022/01/31 00:17:06;;;;;;;6.57;2.60;;;5.60;99.90;;;;;;5029240;28;20177;-78
2022/01/31 00:19:35;;;;;;;8.57;2.13;;;5.90;99.90;;;;;;5029377;28;20185;-78
2022/01/31 00:22:02;;;;;;;5.90;2.20;;;5.70;99.90;;;;;;5029198;28;20261;-77
2022/01/31 00:24:28;;;;;;;8.47;2.77;;;5.70;99.90;;;;;;5033147;28;20173;-78
2022/01/31 00:26:54;;;;;;;10.67;2.20;;;5.60;99.90;;;;;;5032544;28;20275;-78
2022/01/31 00:29:20;;;;;;;8.97;2.37;;;5.60;99.90;;;;;;5049017;28;20657;-77
2022/01/31 00:31:45;;;;;;;7.43;2.47;;;5.50;99.90;;;;;;5017377;28;20525;-77
2022/01/31 00:34:11;;;;;;;5.40;2.73;;;5.80;99.90;;;;;;5036045;28;20181;-78
2022/01/31 00:36:37;;;;;;;9.43;2.20;;;5.70;99.90;;;;;;5051123;28;20177;-77
2022/01/31 00:39:04;;;;;;;5.80;2.43;;;5.60;99.90;;;;;;5016036;28;20245;-76
2022/01/31 00:41:30;;;;;;;6.33;2.47;;;5.70;99.90;;;;;;5032329;28;20182;-76
2022/01/31 00:44:42;;;;;;;6.77;2.20;;;5.50;99.90;;;;;;5016280;28;20181;-78
2022/01/31 00:46:52;;;;;;;8.07;2.63;;;5.60;99.90;;;;;;5016318;28;20222;-76
2022/01/31 00:49:37;;;;;;;8.17;2.13;;;5.60;99.90;;;;;;5016810;28;20166;-77
2022/01/31 00:52:04;;;;;;;6.53;2.30;;;5.70;99.90;;;;;;5015874;28;20169;-76
2022/01/31 00:54:30;;;;;;;4.97;2.00;;;5.70;99.90;;;;;;5033607;28;20177;-78
2022/01/31 00:56:56;;;;;;;4.80;2.03;;;5.60;99.90;;;;;;5032439;28;20178;-77
2022/01/31 00:59:22;;;;;;;9.27;1.90;;;5.60;99.90;;;;;;5033482;28;20550;-78
2022/01/31 01:01:48;;;;;;;8.10;2.03;;;5.70;99.90;;;;;;5033475;28;20170;-77
2022/01/31 01:04:14;;;;;;;6.27;2.40;;;5.80;99.90;;;;;;5031992;28;20301;-77
2022/01/31 01:06:41;;;;;;;5.33;2.13;;;5.90;99.90;;;;;;5033340;28;20691;-77
2022/01/31 01:09:07;;;;;;;5.13;1.63;;;5.90;99.90;;;;;;5032107;28;20570;-77
2022/01/31 01:11:34;;;;;;;7.03;2.43;;;5.80;99.90;;;;;;5015431;28;20178;-78
2022/01/31 01:14:00;;;;;;;8.00;2.80;;;5.60;99.90;;;;;;5039667;28;20236;-77
2022/01/31 01:16:26;;;;;;;8.67;2.33;;;5.60;99.90;;;;;;5053145;28;20188;-76
2022/01/31 01:18:52;;;;;;;5.90;1.93;;;5.60;99.90;;;;;;5051607;28;20181;-77
2022/01/31 01:21:18;;;;;;;5.63;2.13;;;5.50;99.90;;;;;;5051641;28;20172;-77
2022/01/31 01:23:43;;;;;;;6.63;2.23;;;5.60;99.90;;;;;;5053208;28;20169;-76
2022/01/31 01:26:09;;;;;;;6.77;2.10;;;5.70;99.90;;;;;;5016887;28;20205;-76
2022/01/31 01:28:35;;;;;;;4.80;2.00;;;5.80;99.90;;;;;;5032941;28;20202;-76
2022/01/31 01:31:01;;;;;;;9.73;2.37;;;5.90;99.90;;;;;;5031076;28;20228;-76
2022/01/31 01:33:27;;;;;;;10.70;2.13;;;6.00;99.90;;;;;;5032365;28;20178;-77
2022/01/31 01:35:54;;;;;;;7.30;2.13;;;6.00;99.90;;;;;;5008472;28;20265;-77
2022/01/31 01:38:27;;;;;;;8.70;2.90;;;6.00;99.90;;;;;;5032686;28;20178;-77
2022/01/31 01:40:55;;;;;;;4.47;2.13;;;5.80;99.90;;;;;;5050770;28;20227;-77
2022/01/31 01:43:21;;;;;;;13.73;2.70;;;5.60;99.90;;;;;;5049665;28;20817;-77
2022/01/31 01:45:51;;;;;;;5.90;2.03;;;5.80;99.90;;;;;;5049925;28;20208;-78
2022/01/31 01:48:17;;;;;;;5.47;1.90;;;5.80;99.90;;;;;;5040325;28;20178;-78
2022/01/31 01:50:42;;;;;;;6.93;2.33;;;5.80;99.90;;;;;;5014191;28;20177;-77
2022/01/31 01:53:09;;;;;;;8.00;2.20;;;5.80;99.90;;;;;;4997790;28;20220;-78
2022/01/31 01:55:35;;;;;;;6.27;2.27;;;5.80;99.90;;;;;;5031436;28;20190;-79
2022/01/31 01:58:03;;;;;;;10.73;2.17;;;5.70;99.90;;;;;;5031398;28;20272;-77
2022/01/31 02:00:43;;;;;;;10.77;2.37;;;5.90;99.90;;;;;;5014836;28;20181;-78
2022/01/31 02:03:09;;;;;;;6.73;2.33;;;5.90;99.90;;;;;;5016580;28;20174;-78
2022/01/31 02:05:35;;;;;;;6.00;2.23;;;5.90;99.90;;;;;;5014317;28;20217;-76
2022/01/31 02:08:01;;;;;;;8.70;2.40;;;5.90;99.90;;;;;;5032068;28;20177;-77
2022/01/31 02:10:28;;;;;;;10.67;2.57;;;5.90;99.90;;;;;;5015723;28;20190;-78
2022/01/31 02:12:54;;;;;;;4.27;2.23;;;6.00;99.90;;;;;;5030972;28;20231;-76
2022/01/31 02:15:24;;;;;;;7.50;2.03;;;5.90;99.90;;;;;;5014332;28;20194;-77
2022/01/31 02:17:50;;;;;;;10.37;2.57;;;5.90;99.90;;;;;;5015187;28;20208;-77
2022/01/31 02:20:16;;;;;;;6.17;2.40;;;5.90;99.90;;;;;;5030631;28;20210;-77
2022/01/31 02:22:42;;;;;;;5.33;1.97;;;5.90;99.90;;;;;;5030389;28;20174;-77
2022/01/31 02:25:09;;;;;;;8.90;2.33;;;6.00;99.90;;;;;;5019842;28;20323;-77
2022/01/31 02:27:37;;;;;;;7.77;2.30;;;6.00;99.90;;;;;;4998118;28;20185;-77
2022/01/31 02:30:06;;;;;;;4.50;1.63;;;6.00;99.90;;;;;;5014646;28;20183;-78
2022/01/31 02:32:33;;;;;;;7.83;2.40;;;6.00;99.90;;;;;;5014174;28;20170;-78
2022/01/31 02:34:59;;;;;;;4.13;2.17;;;6.00;99.90;;;;;;5031993;28;20192;-78
2022/01/31 02:37:25;;;;;;;8.97;2.50;;;6.00;99.90;;;;;;5038096;28;20177;-78
2022/01/31 02:39:52;;;;;;;4.83;2.00;;;5.90;99.90;;;;;;5033069;28;20206;-76
2022/01/31 02:42:18;;;;;;;7.67;2.30;;;5.80;99.90;;;;;;5033778;28;20192;-77
2022/01/31 02:44:45;;;;;;;6.83;2.00;;;5.70;99.90;;;;;;5051516;28;20184;-77
2022/01/31 02:47:35;;;;;;;10.13;2.40;;;5.90;99.90;;;;;;5049908;28;20291;-76
2022/01/31 02:50:02;;;;;;;5.37;2.03;;;5.80;99.90;;;;;;5049691;28;20181;-76
2022/01/31 02:52:34;;;;;;;10.90;2.60;;;5.90;99.90;;;;;;5029941;28;20261;-78
2022/01/31 02:55:01;;;;;;;6.63;2.30;;;5.90;99.90;;;;;;5039356;28;20195;-77
2022/01/31 02:57:28;;;;;;;6.53;2.07;;;5.80;99.90;;;;;;5033539;28;20181;-76
2022/01/31 02:59:54;;;;;;;9.13;2.57;;;5.60;99.90;;;;;;5049776;28;20176;-76
2022/01/31 03:02:19;;;;;;;5.63;2.60;;;5.80;99.90;;;;;;5042951;28;20169;-77
2022/01/31 03:04:45;;;;;;;5.83;2.30;;;5.70;99.90;;;;;;5015825;28;20204;-78
2022/01/31 03:07:12;;;;;;;4.43;2.20;;;5.70;99.90;;;;;;5033906;28;20283;-77
2022/01/31 03:09:38;;;;;;;7.63;2.60;;;5.70;99.90;;;;;;5041600;28;20253;-76
2022/01/31 03:12:04;;;;;;;9.00;2.40;;;5.90;99.90;;;;;;5011381;28;20641;-76
2022/01/31 03:14:29;;;;;;;5.50;2.20;;;5.80;99.90;;;;;;5029732;28;20257;-77
2022/01/31 03:16:55;;;;;;;5.40;2.00;;;5.80;99.90;;;;;;5013257;28;20289;-76
2022/01/31 03:19:21;;;;;;;12.80;2.50;;;5.90;99.90;;;;;;5013574;28;20247;-79
2022/01/31 03:21:47;;;;;;;5.93;2.00;;;5.70;99.90;;;;;;5013606;28;20184;-77
2022/01/31 03:24:13;;;;;;;10.13;2.07;;;5.90;99.90;;;;;;5031328;28;20177;-77
2022/01/31 03:26:40;;;;;;;8.20;2.57;;;6.00;99.90;;;;;;5021266;28;20297;-76
2022/01/31 03:29:06;;;;;;;7.23;2.03;;;6.20;99.90;;;;;;5050217;28;20201;-78
2022/01/31 03:31:32;;;;;;;6.43;2.27;;;6.00;99.90;;;;;;5050814;28;20196;-78
2022/01/31 03:33:58;;;;;;;8.03;2.00;;;6.00;99.90;;;;;;5032782;28;20200;-78
2022/01/31 03:36:24;;;;;;;5.60;1.93;;;6.10;99.90;;;;;;5051038;28;20208;-79
2022/01/31 03:38:50;;;;;;;4.30;2.00;;;6.00;99.90;;;;;;5046016;28;20672;-77
2022/01/31 03:41:19;;;;;;;8.37;1.80;;;5.90;99.90;;;;;;5030320;28;20169;-77
2022/01/31 03:43:45;;;;;;;4.43;2.03;;;5.80;99.90;;;;;;5013326;28;20253;-78
2022/01/31 03:46:11;;;;;;;5.40;1.90;;;5.70;99.90;;;;;;5030996;28;20284;-77
2022/01/31 03:48:37;;;;;;;7.70;2.13;;;5.90;99.90;;;;;;5029935;28;20177;-80
2022/01/31 03:51:04;;;;;;;5.37;1.97;;;6.00;99.90;;;;;;5013669;28;20178;-79
2022/01/31 03:53:37;;;;;;;7.70;2.40;;;6.10;99.90;;;;;;5029566;28;20700;-78
2022/01/31 03:56:03;;;;;;;5.90;2.13;;;5.90;99.90;;;;;;5013121;28;20293;-77
2022/01/31 03:58:29;;;;;;;6.50;2.10;;;5.90;99.90;;;;;;5029273;28;20257;-77
2022/01/31 04:00:54;;;;;;;4.40;1.90;;;6.00;99.90;;;;;;5038496;28;20250;-76
2022/01/31 04:03:21;;;;;;;8.47;1.93;;;5.90;99.90;;;;;;5049393;28;20177;-78
2022/01/31 04:05:46;;;;;;;11.83;2.63;;;5.80;99.90;;;;;;5052450;28;20207;-76
2022/01/31 04:08:12;;;;;;;8.47;2.30;;;5.80;99.90;;;;;;5036427;28;20177;-75
2022/01/31 04:10:38;;;;;;;5.30;2.07;;;5.80;99.90;;;;;;5046266;28;20206;-77
2022/01/31 04:13:07;;;;;;;9.83;2.47;;;5.90;99.90;;;;;;5034635;28;20229;-77
2022/01/31 04:15:39;;;;;;;3.77;1.90;;;6.00;99.90;;;;;;5033082;28;20721;-77
2022/01/31 04:18:05;;;;;;;6.77;2.03;;;6.10;99.90;;;;;;5033971;28;20180;-78
2022/01/31 04:20:31;;;;;;;7.17;2.10;;;6.10;99.90;;;;;;5034084;28;20178;-78
2022/01/31 04:25:42;;;;;;;4.07;1.90;;;6.10;99.90;;;;;;5033842;28;20198;-77
2022/01/31 04:28:18;;;;;;;4.00;2.10;;;6.10;99.90;;;;;;5034320;28;20248;-77
2022/01/31 04:30:51;;;;;;;3.23;1.90;;;6.00;99.90;;;;;;5032935;28;20166;-77
2022/01/31 04:33:17;;;;;;;6.60;2.53;;;6.00;99.90;;;;;;5034342;28;20190;-79
2022/01/31 04:35:43;;;;;;;10.07;2.23;;;6.00;99.90;;;;;;5016256;28;20252;-77
2022/01/31 04:38:08;;;;;;;4.47;1.83;;;5.90;99.90;;;;;;5032611;28;20185;-77
2022/01/31 04:40:34;;;;;;;4.10;2.03;;;6.00;99.90;;;;;;5015284;28;20189;-77
2022/01/31 04:43:00;;;;;;;6.23;1.93;;;6.10;99.90;;;;;;5033553;28;20178;-76
2022/01/31 04:45:26;;;;;;;7.47;2.30;;;6.20;99.90;;;;;;5033701;28;20206;-77
2022/01/31 04:47:51;;;;;;;4.83;1.97;;;6.30;99.90;;;;;;5016021;28;20273;-77
2022/01/31 04:50:17;;;;;;;7.07;1.77;;;6.20;99.90;;;;;;5032372;28;20178;-77
2022/01/31 04:52:43;;;;;;;3.93;1.70;;;6.10;99.90;;;;;;5033573;28;20177;-77
2022/01/31 04:55:10;;;;;;;5.30;2.00;;;6.20;99.90;;;;;;5016413;28;20170;-78
2022/01/31 04:57:36;;;;;;;4.83;2.00;;;6.30;99.90;;;;;;4999682;28;20178;-77
2022/01/31 05:00:05;;;;;;;7.27;1.97;;;6.30;99.90;;;;;;5034932;28;20166;-78
2022/01/31 05:02:31;;;;;;;7.70;2.00;;;6.00;99.90;;;;;;5051734;28;20173;-77
2022/01/31 05:04:56;;;;;;;6.97;2.10;;;5.80;99.90;;;;;;5053184;28;20182;-77
2022/01/31 05:07:22;;;;;;;6.13;2.20;;;5.70;99.90;;;;;;5018850;28;20232;-77
2022/01/31 05:09:49;;;;;;;4.67;2.10;;;6.00;99.90;;;;;;5035431;28;20266;-77
2022/01/31 05:12:15;;;;;;;5.40;1.80;;;6.10;99.90;;;;;;5035192;28;20184;-78
2022/01/31 05:14:41;;;;;;;3.13;1.70;;;6.10;99.90;;;;;;5052212;28;20184;-77
2022/01/31 05:17:07;;;;;;;7.53;2.30;;;6.00;99.90;;;;;;5052565;28;20633;-77
2022/01/31 05:19:32;;;;;;;4.40;1.63;;;5.90;99.90;;;;;;5052185;28;20176;-76
2022/01/31 05:21:58;;;;;;;5.00;2.13;;;6.10;99.90;;;;;;5051722;28;20243;-78
2022/01/31 05:24:25;;;;;;;3.93;1.73;;;6.10;99.90;;;;;;5052893;28;20259;-77
2022/01/31 05:26:52;;;;;;;4.13;1.80;;;6.20;99.90;;;;;;5052977;28;20208;-78
2022/01/31 05:29:18;;;;;;;6.00;2.00;;;6.30;99.90;;;;;;5051142;28;20181;-76
2022/01/31 05:31:44;;;;;;;4.70;1.87;;;6.60;99.90;;;;;;5051376;28;20180;-77
2022/01/31 05:34:11;;;;;;;4.13;1.83;;;6.50;99.90;;;;;;5052479;28;20181;-78
2022/01/31 05:36:37;;;;;;;4.63;1.60;;;6.50;99.90;;;;;;5050976;28;20181;-77
2022/01/31 05:39:03;;;;;;;6.63;1.93;;;6.60;99.90;;;;;;5027919;28;20543;-79
2022/01/31 05:41:29;;;;;;;5.23;1.60;;;6.60;99.90;;;;;;5014779;28;20181;-77
2022/01/31 05:43:56;;;;;;;4.37;1.60;;;6.60;99.90;;;;;;5014643;28;20281;-77
2022/01/31 05:46:21;;;;;;;3.57;1.77;;;6.50;99.90;;;;;;4998345;28;20202;-77
2022/01/31 05:48:47;;;;;;;5.70;2.20;;;6.50;99.90;;;;;;5030899;28;20177;-77
2022/01/31 05:51:18;;;;;;;8.17;1.80;;;6.30;99.90;;;;;;5031058;28;20197;-76
2022/01/31 05:53:45;;;;;;;5.83;2.00;;;6.20;99.90;;;;;;5030721;28;20178;-78
2022/01/31 05:56:15;;;;;;;5.03;1.60;;;6.10;99.90;;;;;;5030893;28;20178;-77
2022/01/31 05:58:42;;;;;;;6.23;1.90;;;6.10;99.90;;;;;;5031018;28;20656;-76
2022/01/31 06:01:08;;;;;;;3.03;1.50;;;6.20;99.90;;;;;;5032118;28;20178;-76
2022/01/31 06:03:34;;;;;;;3.80;1.70;;;6.30;99.90;;;;;;4997872;28;20520;-76
2022/01/31 06:06:01;;;;;;;5.03;1.57;;;6.40;99.90;;;;;;5030242;28;20743;-78
2022/01/31 06:08:28;;;;;;;3.67;1.73;;;6.30;99.90;;;;;;5032374;28;20656;-78
2022/01/31 06:10:54;;;;;;;3.10;1.30;;;6.30;99.90;;;;;;5040761;28;20232;-76
2022/01/31 06:13:29;;;;;;;4.83;1.97;;;6.30;99.90;;;;;;5050436;28;20212;-76
2022/01/31 06:15:55;;;;;;;7.27;1.67;;;6.40;99.90;;;;;;5018568;28;20549;-76
2022/01/31 06:18:21;;;;;;;4.93;1.73;;;6.20;99.90;;;;;;5052038;28;20173;-78
2022/01/31 06:20:47;;;;;;;6.17;1.80;;;6.30;99.90;;;;;;5033697;28;20204;-79
2022/01/31 06:23:13;;;;;;;8.33;2.07;;;6.40;99.90;;;;;;5032883;28;20235;-78
2022/01/31 06:25:39;;;;;;;6.17;1.83;;;6.30;99.90;;;;;;5048836;28;20201;-78
2022/01/31 06:28:06;;;;;;;4.60;1.53;;;6.10;99.90;;;;;;5030435;28;20252;-76
2022/01/31 06:30:32;;;;;;;3.77;1.60;;;6.00;99.90;;;;;;5012771;28;20185;-76
2022/01/31 06:32:58;;;;;;;5.60;2.07;;;6.20;99.90;;;;;;5029766;28;20174;-77
2022/01/31 06:35:24;;;;;;;6.17;1.93;;;6.20;99.90;;;;;;5031242;28;20200;-78
2022/01/31 06:37:51;;;;;;;4.30;1.60;;;6.30;99.90;;;;;;5038301;28;20227;-75
2022/01/31 06:40:17;;;;;;;4.80;1.87;;;6.40;99.90;;;;;;5040243;28;20212;-76
2022/01/31 06:42:43;;;;;;;3.00;1.53;;;6.20;99.90;;;;;;5029773;28;20196;-76
2022/01/31 06:45:12;;;;;;;5.40;1.67;;;6.30;99.90;;;;;;5043171;28;20251;-75
2022/01/31 06:47:37;;;;;;;5.57;1.80;;;6.10;99.90;;;;;;5038626;28;20265;-77
2022/01/31 06:50:09;;;;;;;5.57;1.80;;;6.30;99.90;;;;;;5014141;28;20283;-76
2022/01/31 06:52:37;;;;;;;4.70;1.97;;;6.20;99.90;;;;;;5024298;28;20574;-76
2022/01/31 06:55:06;;;;;;;8.57;2.50;;;6.20;99.90;;;;;;5047136;28;20188;-76
2022/01/31 06:57:36;;;;;;;5.60;1.80;;;6.10;99.90;;;;;;5047654;28;20208;-76
2022/01/31 07:00:05;;;;;;;7.83;2.40;;;6.20;99.90;;;;;;5044220;28;20174;-75
2022/01/31 07:02:31;;;;;;;5.47;1.90;;;6.10;99.90;;;;;;5029176;28;20272;-76
2022/01/31 07:04:57;;;;;;;3.67;1.90;;;6.00;99.90;;;;;;5049309;28;20273;-76
2022/01/31 07:07:22;;;;;;;6.03;2.20;;;6.20;99.90;;;;;;5032855;28;20201;-78
2022/01/31 07:09:48;;;;;;;8.87;2.10;;;6.10;99.90;;;;;;5048582;28;20234;-79
2022/01/31 07:12:16;;;;;;;6.63;2.30;;;5.90;99.90;;;;;;5014646;28;20181;-76
2022/01/31 07:14:42;;;;;;;8.77;2.10;;;5.70;99.90;;;;;;5032994;28;20201;-75
2022/01/31 07:17:08;;;;;;;6.70;1.87;;;5.80;99.90;;;;;;5047957;28;20243;-76
2022/01/31 07:19:37;;;;;;;4.30;2.00;;;5.90;99.90;;;;;;5048731;28;20307;-77
2022/01/31 07:22:08;;;;;;;8.87;2.00;;;6.00;99.90;;;;;;5041566;28;20177;-77
2022/01/31 07:27:04;;;;;;;3.47;2.03;;;6.10;99.90;;;;;;5048931;28;20201;-75
2022/01/31 07:29:29;;;;;;;6.57;2.13;;;6.10;99.90;;;;;;5016265;28;20180;-76
2022/01/31 07:31:57;;;;;;;6.77;2.13;;;5.90;99.90;;;;;;5048820;28;20177;-76
2022/01/31 07:34:24;;;;;;;5.07;1.83;;;5.90;99.90;;;;;;5048453;28;20161;-76
2022/01/31 07:36:50;;;;;;;2.90;1.30;;;5.80;99.90;;;;;;5047529;28;20200;-75
2022/01/31 07:39:17;;;;;;;4.30;1.77;;;6.00;99.90;;;;;;5047095;28;20544;-74
2022/01/31 07:41:44;;;;;;;5.37;1.90;;;5.90;99.90;;;;;;5051878;28;20200;-75
2022/01/31 07:44:11;;;;;;;5.67;1.70;;;6.00;99.90;;;;;;5047672;28;20182;-77
2022/01/31 07:46:37;;;;;;;2.20;1.30;;;6.00;99.90;;;;;;5017419;28;20240;-75
2022/01/31 07:49:05;;;;;;;4.47;1.73;;;5.90;99.90;;;;;;5050910;28;20652;-75
2022/01/31 07:51:33;;;;;;;1.93;1.40;;;5.90;99.90;;;;;;5048871;28;20177;-76
2022/01/31 07:53:59;;;;;;;4.57;1.70;;;5.80;99.90;;;;;;5052929;28;20170;-76
2022/01/31 07:56:26;;;;;;;2.17;1.70;;;5.90;99.90;;;;;;5051541;28;20363;-76
2022/01/31 07:58:53;;;;;;;3.37;1.40;;;6.00;99.90;;;;;;5053276;28;20200;-77
2022/01/31 08:01:18;;;;;;;1.70;1.00;;;6.00;99.90;;;;;;5046808;28;20184;-77
2022/01/31 08:03:47;;;;;;;2.57;1.20;;;6.20;99.90;;;;;;5051402;28;20236;-76
2022/01/31 08:06:15;;;;;;;3.60;1.20;;;6.00;99.90;;;;;;5053003;28;20676;-76
2022/01/31 08:08:41;;;;;;;2.90;1.40;;;5.90;99.90;;;;;;5046446;28;20180;-78
2022/01/31 08:11:09;;;;;;;4.40;2.30;;;6.00;99.90;;;;;;5049228;28;20184;-77
2022/01/31 08:13:35;;;;;;;2.33;1.20;;;6.20;99.90;;;;;;5050466;28;20169;-75
2022/01/31 08:16:09;;;;;;;2.87;1.20;;;6.20;99.90;;;;;;5052021;28;20208;-75
2022/01/31 08:18:43;;;;;;;1.70;0.93;;;6.10;99.90;;;;;;5047634;28;20189;-75
2022/01/31 08:21:11;;;;;;;1.93;0.80;;;6.10;99.90;;;;;;5046484;28;20177;-76
2022/01/31 08:23:38;;;;;;;2.57;0.90;;;6.10;99.90;;;;;;5033602;28;20189;-76
2022/01/31 08:26:07;;;;;;;2.10;0.93;;;6.00;99.90;;;;;;5052321;28;20204;-76
2022/01/31 08:28:43;;;;;;;1.07;0.80;;;6.10;99.90;;;;;;5051513;28;20170;-77
2022/01/31 08:31:24;;;;;;;1.27;0.80;;;6.30;99.90;;;;;;5051884;28;20239;-76
2022/01/31 08:34:05;;;;;;;0.70;0.67;;;6.50;99.90;;;;;;5052788;28;20158;-75
2022/01/31 08:36:34;;;;;;;2.73;1.67;;;6.50;99.90;;;;;;5020128;28;20271;-75
2022/01/31 08:39:08;;;;;;;1.10;0.80;;;6.50;99.90;;;;;;5044935;28;20186;-77
2022/01/31 08:41:41;;;;;;;1.17;0.63;;;6.80;99.90;;;;;;5042482;28;20523;-76
2022/01/31 08:44:09;;;;;;;3.07;0.70;;;6.90;99.90;;;;;;5031029;28;20181;-76
2022/01/31 08:46:39;;;;;;;1.43;0.90;;;6.80;99.90;;;;;;5031130;28;20307;-77
2022/01/31 08:49:06;;;;;;;0.87;0.60;;;6.80;99.90;;;;;;5032555;28;20166;-76
2022/01/31 08:51:31;;;;;;;0.73;0.57;;;6.70;99.90;;;;;;5029777;28;20459;-78
2022/01/31 08:53:58;;;;;;;1.00;0.70;;;6.60;99.90;;;;;;5031452;28;20205;-77
2022/01/31 08:56:24;;;;;;;1.07;0.90;;;6.70;99.90;;;;;;5025932;28;20272;-78
2022/01/31 08:58:50;;;;;;;1.57;0.87;;;6.70;99.90;;;;;;5050325;28;20504;-77
2022/01/31 09:01:21;;;;;;;1.57;0.80;;;6.70;99.90;;;;;;5035534;28;20192;-78
2022/01/31 09:06:15;;;;;;;2.50;0.97;;;7.20;99.90;;;;;;5052581;28;20292;-78
2022/01/31 09:08:41;;;;;;;1.07;0.83;;;7.10;99.90;;;;;;5051304;28;20257;-76
2022/01/31 09:11:07;;;;;;;1.10;0.70;;;7.20;99.90;;;;;;5051078;28;20173;-77
2022/01/31 09:13:34;;;;;;;1.63;0.97;;;7.30;99.90;;;;;;5050096;28;20554;-76
2022/01/31 09:16:01;;;;;;;0.93;0.80;;;7.20;99.90;;;;;;5052335;28;20424;-78
2022/01/31 09:18:28;;;;;;;1.63;1.00;;;7.00;99.90;;;;;;5017372;28;20583;-78
2022/01/31 09:20:55;;;;;;;2.00;1.50;;;6.90;99.90;;;;;;5050341;28;20173;-77
2022/01/31 09:23:21;;;;;;;3.40;0.95;;;6.80;99.90;;;;;;5050494;28;20422;-76
2022/01/31 09:25:47;;;;;;;3.77;1.43;;;6.80;99.90;;;;;;5050222;28;20269;-78
2022/01/31 09:28:17;;;;;;;1.27;0.50;;;6.90;99.90;;;;;;5051561;28;20894;-76
2022/01/31 09:30:45;;;;;;;2.07;0.77;;;6.90;99.90;;;;;;5033568;28;20184;-79
2022/01/31 09:33:13;;;;;;;4.30;0.77;;;7.30;99.90;;;;;;5030158;28;20177;-76
2022/01/31 09:35:40;;;;;;;2.37;0.90;;;7.50;99.90;;;;;;5018503;28;20239;-77
2022/01/31 09:38:08;;;;;;;0.60;0.50;;;7.40;99.90;;;;;;5066209;28;20716;-77
2022/01/31 09:40:35;;;;;;;1.17;0.63;;;7.50;99.90;;;;;;5032209;28;20177;-76
2022/01/31 09:43:28;;;;;;;1.57;0.80;;;7.70;99.90;;;;;;5048468;28;20181;-76
2022/01/31 09:51:11;;;;;;;1.87;0.97;;;7.70;99.90;;;;;;5050013;28;20169;-76
2022/01/31 09:53:48;;;;;;;1.03;0.60;;;7.80;99.90;;;;;;5051377;28;20168;-76
2022/01/31 09:56:22;;;;;;;3.70;0.80;;;7.70;99.90;;;;;;5033480;28;20227;-79
2022/01/31 09:58:51;;;;;;;2.37;0.70;;;7.50;99.90;;;;;;5033542;28;20181;-77
2022/01/31 10:01:19;;;;;;;1.97;0.83;;;7.40;99.90;;;;;;5037425;28;20188;-78
2022/01/31 10:03:53;;;;;;;3.33;1.00;;;7.60;99.90;;;;;;5029428;28;20240;-76
2022/01/31 10:06:26;;;;;;;0.60;0.60;;;7.70;99.90;;;;;;5030089;28;20238;-79
2022/01/31 10:09:13;;;;;;;1.07;0.70;;;7.70;99.90;;;;;;5030886;28;20223;-77
2022/01/31 10:11:51;;;;;;;3.27;1.30;;;7.70;99.90;;;;;;5046924;28;20181;-77
2022/01/31 10:17:29;;;;;;;0.67;0.60;;;7.40;99.90;;;;;;5050228;28;20204;-79
2022/01/31 10:20:02;;;;;;;2.47;1.20;;;7.40;99.90;;;;;;5050553;28;20180;-77
2022/01/31 10:22:30;;;;;;;1.37;0.80;;;7.50;99.90;;;;;;5048736;28;20177;-77
2022/01/31 10:24:58;;;;;;;4.63;1.10;;;7.50;99.90;;;;;;5032531;28;20536;-77
2022/01/31 10:27:31;;;;;;;2.70;0.70;;;7.60;99.90;;;;;;5032388;28;20725;-76
2022/01/31 10:30:10;;;;;;;2.60;1.10;;;7.70;99.90;;;;;;5049335;28;20177;-79
2022/01/31 10:32:39;;;;;;;2.07;0.90;;;7.70;99.90;;;;;;5048883;28;20177;-77
2022/01/31 10:35:10;;;;;;;1.60;1.00;;;7.70;99.90;;;;;;5050338;28;20655;-77
2022/01/31 10:37:39;;;;;;;1.57;0.93;;;7.80;99.90;;;;;;5016308;28;20217;-78
2022/01/31 10:45:52;;;;;;;2.47;1.00;;;7.60;99.90;;;;;;5050295;28;20206;-78
2022/01/31 10:54:14;;;;;;;3.30;1.00;;;7.80;99.90;;;;;;5048766;28;20625;-78
2022/01/31 10:56:46;;;;;;;1.70;0.70;;;7.90;99.90;;;;;;5033084;28;20203;-77
2022/01/31 10:59:17;;;;;;;2.37;0.93;;;7.80;99.90;;;;;;5032620;28;20591;-77
2022/01/31 11:01:47;;;;;;;1.90;0.70;;;7.90;99.90;;;;;;5032964;28;20186;-78
2022/01/31 11:04:16;;;;;;;0.90;0.50;;;7.90;99.90;;;;;;5028778;28;20198;-77
2022/01/31 11:06:45;;;;;;;1.20;0.80;;;7.80;99.90;;;;;;5028650;28;20209;-77
2022/01/31 11:09:13;;;;;;;2.40;1.00;;;7.90;99.90;;;;;;5029041;28;20252;-79
2022/01/31 11:11:42;;;;;;;2.20;0.63;;;7.60;99.90;;;;;;5030371;28;20549;-79
2022/01/31 11:14:09;;;;;;;1.30;0.70;;;7.60;99.90;;;;;;5012543;28;20527;-79
2022/01/31 11:16:36;;;;;;;1.80;0.70;;;7.70;99.90;;;;;;5029747;28;20239;-75
2022/01/31 11:19:07;;;;;;;3.70;0.97;;;7.80;99.90;;;;;;5029265;28;20252;-77
2022/01/31 11:21:45;;;;;;;3.00;1.90;;;7.80;99.90;;;;;;5029159;28;20243;-78
2022/01/31 11:24:22;;;;;;;0.80;0.70;;;8.10;99.90;;;;;;5029232;28;20189;-76
2022/01/31 11:26:54;;;;;;;1.63;0.90;;;8.20;99.90;;;;;;5019523;28;20208;-78
2022/01/31 11:29:20;;;;;;;4.50;0.77;;;8.20;99.90;;;;;;5029512;28;20178;-78
2022/01/31 11:31:46;;;;;;;1.40;0.80;;;8.10;99.90;;;;;;5028998;28;20186;-79
2022/01/31 11:34:12;;;;;;;2.27;0.80;;;8.10;99.90;;;;;;5047549;28;20216;-78
2022/01/31 11:36:40;;;;;;;1.73;0.80;;;8.00;99.90;;;;;;5049393;28;20205;-77
2022/01/31 11:39:11;;;;;;;3.73;0.90;;;8.10;99.90;;;;;;5032232;28;20181;-78
2022/01/31 11:41:43;;;;;;;3.17;0.80;;;7.80;99.90;;;;;;5046329;28;21080;-74
2022/01/31 11:44:22;;;;;;;0.93;0.90;;;7.80;99.90;;;;;;5040081;28;20197;-76
2022/01/31 11:46:49;;;;;;;1.63;0.87;;;7.70;99.90;;;;;;5037084;28;20280;-76
2022/01/31 11:49:15;;;;;;;1.90;0.60;;;7.50;99.90;;;;;;5011065;28;20637;-78
2022/01/31 11:52:04;;;;;;;2.67;0.57;;;7.50;99.90;;;;;;5026510;28;20248;-77
2022/01/31 11:54:30;;;;;;;0.83;0.60;;;7.30;99.90;;;;;;5042636;28;20185;-78
2022/01/31 11:56:56;;;;;;;2.90;0.70;;;7.40;99.90;;;;;;5047248;28;20234;-76
2022/01/31 11:59:24;;;;;;;1.43;1.00;;;7.20;99.90;;;;;;5037685;28;20672;-79
2022/01/31 12:01:51;;;;;;;2.83;1.03;;;7.30;99.90;;;;;;5031963;28;20561;-77
2022/01/31 12:04:22;;;;;;;1.17;0.70;;;7.30;99.90;;;;;;5018903;28;20652;-75
2022/01/31 12:06:48;;;;;;;1.87;0.90;;;7.30;99.90;;;;;;5047542;28;20211;-79
2022/01/31 12:09:17;;;;;;;1.30;0.77;;;7.30;99.90;;;;;;5040700;28;20186;-77
2022/01/31 12:12:06;;;;;;;4.00;1.00;;;7.30;99.90;;;;;;5042744;28;20213;-79
2022/01/31 12:14:44;;;;;;;2.83;1.10;;;7.00;99.90;;;;;;5037483;28;20982;-78
2022/01/31 12:18:03;;;;;;;2.27;0.70;;;6.90;99.90;;;;;;5033100;28;20189;-77
2022/01/31 12:23:38;;;;;;;1.07;0.70;;;7.10;99.90;;;;;;5047458;28;20207;-77
2022/01/31 12:26:26;;;;;;;1.60;0.80;;;7.20;99.90;;;;;;5030874;28;20212;-77
2022/01/31 12:29:01;;;;;;;3.97;0.83;;;7.30;99.90;;;;;;5048714;28;20207;-78
2022/01/31 12:31:43;;;;;;;3.47;1.40;;;7.50;99.90;;;;;;5019991;28;20174;-77
2022/01/31 12:34:19;;;;;;;2.03;0.90;;;7.30;99.90;;;;;;5046349;28;20181;-76
2022/01/31 12:36:45;;;;;;;1.70;0.77;;;7.40;99.90;;;;;;5044955;28;20223;-76
2022/01/31 12:39:32;;;;;;;3.53;0.73;;;7.50;99.90;;;;;;5021863;28;20204;-77
2022/01/31 12:42:02;;;;;;;1.80;0.87;;;7.30;99.90;;;;;;5043596;28;20203;-77
2022/01/31 12:44:36;;;;;;;2.67;0.80;;;7.20;99.90;;;;;;5036509;28;20189;-79
2022/01/31 12:47:06;;;;;;;3.90;1.10;;;7.30;99.90;;;;;;5045661;28;20211;-77
2022/01/31 12:49:32;;;;;;;1.73;0.80;;;7.40;99.90;;;;;;5042971;28;20192;-78
2022/01/31 12:52:01;;;;;;;2.57;0.80;;;7.50;99.90;;;;;;5033915;28;20178;-76
2022/01/31 12:54:28;;;;;;;2.47;1.47;;;7.30;99.90;;;;;;5042118;28;20667;-75
2022/01/31 12:56:54;;;;;;;2.43;0.83;;;7.50;99.90;;;;;;5031143;28;20192;-76
2022/01/31 12:59:21;;;;;;;2.77;0.80;;;7.20;99.90;;;;;;5036510;28;20919;-77
2022/01/31 13:01:49;;;;;;;1.80;0.80;;;7.30;99.90;;;;;;5046148;28;20669;-77
2022/01/31 13:04:27;;;;;;;5.87;0.77;;;7.50;99.90;;;;;;5050639;28;20200;-76
2022/01/31 13:06:55;;;;;;;4.03;0.70;;;7.50;99.90;;;;;;5037077;28;20254;-76
2022/01/31 13:09:30;;;;;;;2.33;0.53;;;7.50;99.90;;;;;;5038031;28;20569;-76
2022/01/31 13:12:05;;;;;;;2.17;0.80;;;7.30;99.90;;;;;;5026586;28;20196;-78
2022/01/31 13:14:36;;;;;;;2.33;0.87;;;7.10;99.90;;;;;;5031534;28;20731;-76
2022/01/31 13:17:13;;;;;;;1.67;0.80;;;7.20;99.90;;;;;;5050722;28;20647;-77
2022/01/31 13:19:48;;;;;;;1.77;0.73;;;7.20;99.90;;;;;;5051187;28;20177;-77
2022/01/31 13:22:18;;;;;;;1.47;0.60;;;6.90;99.90;;;;;;5050911;28;20184;-77
2022/01/31 13:24:47;;;;;;;1.83;0.70;;;6.70;99.90;;;;;;5036685;28;20197;-76
2022/01/31 13:27:16;;;;;;;1.57;0.77;;;6.90;99.90;;;;;;5008685;28;20673;-80
2022/01/31 13:29:47;;;;;;;2.30;0.60;;;7.10;99.90;;;;;;5036927;28;20234;-76
2022/01/31 13:32:34;;;;;;;1.43;0.70;;;7.00;99.90;;;;;;5025232;28;20178;-76
2022/01/31 13:35:11;;;;;;;2.13;0.67;;;6.90;99.90;;;;;;5042816;28;20194;-76
2022/01/31 13:37:48;;;;;;;1.33;0.60;;;7.10;99.90;;;;;;5021160;28;20501;-77